createdAt,value
2019-04-04T00:02:08.717Z,7.59
2019-04-04T00:05:12.606Z,7.64
2019-04-04T00:08:16.457Z,7.57
2019-04-04T00:11:20.296Z,7.62
2019-04-04T00:14:24.091Z,7.70
2019-04-04T00:17:27.885Z,7.65
2019-04-04T00:20:32.316Z,7.76
2019-04-04T00:23:38.038Z,7.93
2019-04-04T00:26:42.628Z,7.97
2019-04-04T00:29:47.992Z,8.10
2019-04-04T00:32:52.786Z,8.40
2019-04-04T00:35:57.253Z,8.37
2019-04-04T00:39:01.084Z,8.39
2019-04-04T00:42:04.972Z,8.25
2019-04-04T00:45:08.929Z,8.21
2019-04-04T00:48:12.779Z,7.97
2019-04-04T00:51:16.602Z,7.98
2019-04-04T00:54:20.424Z,7.99
2019-04-04T00:57:24.252Z,8.24
2019-04-04T01:00:28.116Z,7.98
2019-04-04T01:03:31.927Z,7.90
2019-04-04T01:06:35.755Z,7.91
2019-04-04T01:09:39.607Z,7.87
2019-04-04T01:12:43.441Z,7.88
2019-04-04T01:15:47.323Z,7.97
2019-04-04T01:18:51.132Z,8.18
2019-04-04T01:21:54.944Z,8.14
2019-04-04T01:24:59.024Z,8.08
2019-04-04T01:28:04.390Z,8.05
2019-04-04T01:31:08.223Z,8.08
2019-04-04T01:34:12.033Z,8.09
2019-04-04T01:37:15.894Z,8.06
2019-04-04T01:40:19.880Z,8.14
2019-04-04T01:43:23.690Z,8.26
2019-04-04T01:46:27.488Z,8.08
2019-04-04T01:49:31.290Z,7.99
2019-04-04T01:52:35.109Z,7.95
2019-04-04T01:55:38.919Z,7.93
2019-04-04T01:58:42.712Z,7.93
2019-04-04T02:01:46.840Z,7.91
2019-04-04T02:04:51.301Z,7.87
2019-04-04T02:07:55.107Z,7.88
2019-04-04T02:10:58.909Z,7.92
2019-04-04T02:14:02.733Z,7.95
2019-04-04T02:17:06.606Z,7.90
2019-04-04T02:20:10.573Z,7.97
2019-04-04T02:23:14.385Z,7.97
2019-04-04T02:26:18.185Z,8.16
2019-04-04T02:29:22.025Z,8.22
2019-04-04T02:32:27.519Z,8.15
2019-04-04T02:35:31.487Z,7.94
2019-04-04T02:38:35.269Z,7.82
2019-04-04T02:41:39.082Z,7.76
2019-04-04T02:44:42.961Z,7.71
2019-04-04T02:47:50.313Z,7.75
2019-04-04T02:50:52.280Z,7.75
2019-04-04T02:53:56.085Z,7.74
2019-04-04T02:56:59.935Z,7.78
2019-04-04T03:00:04.413Z,7.82
2019-04-04T03:03:09.325Z,7.99
2019-04-04T03:06:13.465Z,8.08
2019-04-04T03:09:17.337Z,8.22
2019-04-04T03:12:21.326Z,7.80
2019-04-04T03:15:25.223Z,7.74
2019-04-04T03:18:29.096Z,7.75
2019-04-04T03:21:32.963Z,7.95
2019-04-04T03:24:40.282Z,8.18
2019-04-04T03:27:42.373Z,7.86
2019-04-04T03:30:52.426Z,7.72
2019-04-04T03:33:51.803Z,7.88
2019-04-04T03:36:55.678Z,7.70
2019-04-04T03:39:59.529Z,7.64
2019-04-04T03:43:03.317Z,7.51
2019-04-04T03:46:07.143Z,7.38
2019-04-04T03:49:10.915Z,7.33
2019-04-04T03:52:14.734Z,7.32
2019-04-04T03:55:18.588Z,7.29
2019-04-04T03:58:27.043Z,7.29
2019-04-04T04:01:27.988Z,7.29
2019-04-04T04:04:31.826Z,7.18
2019-04-04T04:07:35.626Z,7.28
2019-04-04T04:10:39.416Z,7.10
2019-04-04T04:13:43.220Z,7.02
2019-04-04T04:16:47.028Z,7.14
2019-04-04T04:19:50.833Z,7.07
2019-04-04T04:22:54.701Z,6.90
2019-04-04T04:25:58.568Z,6.77
2019-04-04T04:29:02.485Z,6.66
2019-04-04T04:32:06.386Z,6.66
2019-04-04T04:35:10.429Z,6.59
2019-04-04T04:38:14.211Z,6.60
2019-04-04T04:41:20.423Z,6.65
2019-04-04T04:44:23.581Z,6.55
2019-04-04T04:47:27.457Z,6.46
2019-04-04T04:50:31.243Z,6.39
2019-04-04T04:53:35.063Z,6.39
2019-04-04T04:56:38.869Z,6.46
2019-04-04T04:59:44.299Z,6.23
2019-04-04T05:02:48.529Z,6.28
2019-04-04T05:05:52.409Z,6.27
2019-04-04T05:08:56.226Z,6.36
2019-04-04T05:12:00.124Z,6.26
2019-04-04T05:15:04.269Z,6.24
2019-04-04T05:18:08.064Z,6.23
2019-04-04T05:21:24.134Z,6.33
2019-04-04T05:24:18.105Z,6.17
2019-04-04T05:27:22.617Z,6.15
2019-04-04T05:30:26.433Z,6.18
2019-04-04T05:33:31.667Z,6.20
2019-04-04T05:36:36.784Z,6.24
2019-04-04T05:39:40.927Z,6.29
2019-04-04T05:42:45.698Z,6.33
2019-04-04T05:45:49.474Z,6.36
2019-04-04T05:48:53.364Z,6.39
2019-04-04T05:51:57.165Z,6.42
2019-04-04T05:55:00.997Z,6.45
2019-04-04T05:58:04.883Z,6.48
2019-04-04T06:01:10.254Z,6.41
2019-04-04T06:04:14.355Z,6.32
2019-04-04T06:07:18.224Z,6.38
2019-04-04T06:10:22.005Z,6.24
2019-04-04T06:13:27.049Z,6.24
2019-04-04T06:16:33.050Z,6.28
2019-04-04T06:19:36.920Z,6.46
2019-04-04T06:22:40.708Z,6.51
2019-04-04T06:25:44.549Z,6.66
2019-04-04T06:28:48.437Z,6.77
2019-04-04T06:31:52.273Z,6.81
2019-04-04T06:34:56.779Z,6.76
2019-04-04T06:38:00.723Z,6.92
2019-04-04T06:41:04.653Z,6.95
2019-04-04T06:44:08.528Z,7.00
2019-04-04T06:47:12.344Z,7.09
2019-04-04T06:50:16.328Z,7.19
2019-04-04T06:53:20.389Z,7.19
2019-04-04T06:56:25.644Z,7.36
2019-04-04T06:59:29.530Z,7.49
2019-04-04T07:02:33.364Z,7.43
2019-04-04T07:05:38.831Z,7.59
2019-04-04T07:08:42.916Z,7.80
2019-04-04T07:11:46.811Z,7.60
2019-04-04T07:14:50.720Z,7.75
2019-04-04T07:17:54.545Z,7.81
2019-04-04T07:20:58.403Z,8.01
2019-04-04T07:24:02.237Z,8.24
2019-04-04T07:27:06.236Z,8.25
2019-04-04T07:30:10.491Z,8.44
2019-04-04T07:33:14.287Z,8.55
2019-04-04T07:36:20.180Z,8.51
2019-04-04T07:39:23.630Z,8.78
2019-04-04T07:42:27.531Z,8.62
2019-04-04T07:45:31.429Z,8.74
2019-04-04T07:48:35.382Z,8.89
2019-04-04T07:51:39.164Z,9.05
2019-04-04T07:54:42.962Z,9.16
2019-04-04T07:57:46.767Z,9.22
2019-04-04T08:00:50.559Z,9.21
2019-04-04T08:03:54.403Z,9.36
2019-04-04T08:06:58.213Z,9.47
2019-04-04T08:10:02.014Z,9.58
2019-04-04T08:13:05.946Z,9.50
2019-04-04T08:16:09.822Z,9.78
2019-04-04T08:19:13.594Z,9.86
2019-04-04T08:22:17.482Z,9.97
2019-04-04T08:25:21.378Z,10.08
2019-04-04T08:28:25.200Z,10.17
2019-04-04T08:31:29.020Z,10.18
2019-04-04T08:34:32.921Z,10.10
2019-04-04T08:37:36.735Z,10.30
2019-04-04T08:40:40.556Z,10.15
2019-04-04T08:43:44.341Z,10.16
2019-04-04T08:46:48.151Z,10.31
2019-04-04T08:49:51.953Z,10.30
2019-04-04T08:52:55.845Z,10.65
2019-04-04T08:55:59.713Z,10.97
2019-04-04T08:59:03.604Z,10.95
2019-04-04T09:02:07.538Z,11.05
2019-04-04T09:05:12.631Z,11.11
2019-04-04T09:08:16.620Z,11.16
2019-04-04T09:11:20.761Z,11.03
2019-04-04T09:14:24.735Z,10.65
2019-04-04T09:17:28.536Z,10.66
2019-04-04T09:20:32.383Z,10.81
2019-04-04T09:23:36.248Z,11.12
2019-04-04T09:26:40.127Z,11.15
2019-04-04T09:29:43.940Z,11.01
2019-04-04T09:32:47.752Z,11.20
2019-04-04T09:35:51.634Z,11.28
2019-04-04T09:38:55.436Z,11.57
2019-04-04T09:41:59.258Z,11.77
2019-04-04T09:45:03.156Z,11.73
2019-04-04T09:48:07.129Z,11.75
2019-04-04T09:51:11.009Z,11.74
2019-04-04T09:54:14.903Z,12.38
2019-04-04T09:57:18.711Z,12.37
2019-04-04T10:00:24.534Z,12.42
2019-04-04T10:03:28.425Z,12.43
2019-04-04T10:06:32.238Z,12.64
2019-04-04T10:09:36.063Z,12.43
2019-04-04T10:12:39.876Z,12.24
2019-04-04T10:15:44.125Z,12.14
2019-04-04T10:18:47.931Z,12.16
2019-04-04T10:21:51.753Z,12.11
2019-04-04T10:24:55.566Z,12.00
2019-04-04T10:27:59.364Z,12.14
2019-04-04T10:31:03.254Z,12.05
2019-04-04T10:34:07.224Z,12.25
2019-04-04T10:37:11.155Z,12.10
2019-04-04T10:40:15.688Z,12.24
2019-04-04T10:43:19.505Z,12.38
2019-04-04T10:46:23.377Z,12.29
2019-04-04T10:49:27.184Z,12.59
2019-04-04T10:52:30.995Z,12.49
2019-04-04T10:55:34.803Z,12.43
2019-04-04T10:58:38.690Z,12.33
2019-04-04T11:01:42.524Z,11.94
2019-04-04T11:04:46.355Z,12.00
2019-04-04T11:07:50.151Z,12.14
2019-04-04T11:10:53.976Z,12.27
2019-04-04T11:13:57.884Z,12.39
2019-04-04T11:17:01.695Z,12.56
2019-04-04T11:20:06.124Z,12.58
2019-04-04T11:23:09.995Z,12.32
2019-04-04T11:26:13.881Z,12.23
2019-04-04T11:29:17.761Z,12.46
2019-04-04T11:32:21.659Z,12.52
2019-04-04T11:35:25.481Z,12.74
2019-04-04T11:38:29.309Z,12.58
2019-04-04T11:41:33.129Z,12.78
2019-04-04T11:44:36.933Z,13.01
2019-04-04T11:47:40.728Z,13.13
2019-04-04T11:50:44.665Z,13.30
2019-04-04T11:53:48.478Z,13.24
2019-04-04T11:56:52.277Z,13.17
2019-04-04T11:59:56.167Z,13.11
2019-04-04T12:03:00.062Z,12.99
2019-04-04T12:06:04.001Z,12.88
2019-04-04T12:09:08.855Z,12.94
2019-04-04T12:12:12.672Z,13.09
2019-04-04T12:15:16.632Z,12.99
2019-04-04T12:18:20.501Z,13.31
2019-04-04T12:21:24.300Z,13.34
2019-04-04T12:24:28.084Z,13.13
2019-04-04T12:27:31.915Z,13.03
2019-04-04T12:30:35.876Z,13.16
2019-04-04T12:33:39.686Z,12.99
2019-04-04T12:36:43.502Z,13.22
2019-04-04T12:39:47.318Z,13.70
2019-04-04T12:42:51.220Z,13.63
2019-04-04T12:45:55.123Z,13.64
2019-04-04T12:48:58.928Z,13.66
2019-04-04T12:52:02.742Z,13.59
2019-04-04T12:55:07.604Z,13.55
2019-04-04T12:58:11.492Z,13.65
2019-04-04T13:01:15.309Z,13.60
2019-04-04T13:04:30.697Z,13.68
2019-04-04T13:07:24.838Z,13.62
2019-04-04T13:10:33.162Z,13.71
2019-04-04T13:13:34.311Z,13.58
2019-04-04T13:16:38.117Z,13.59
2019-04-04T13:19:42.042Z,13.63
2019-04-04T13:22:46.023Z,13.56
2019-04-04T13:25:49.831Z,13.33
2019-04-04T13:28:53.641Z,13.54
2019-04-04T13:31:57.478Z,13.49
2019-04-04T13:35:04.919Z,13.69
2019-04-04T13:38:06.915Z,13.86
2019-04-04T13:41:21.278Z,13.83
2019-04-04T13:44:16.269Z,13.86
2019-04-04T13:47:20.064Z,13.74
2019-04-04T13:50:23.869Z,13.70
2019-04-04T13:53:27.678Z,13.91
2019-04-04T13:56:31.501Z,14.00
2019-04-04T13:59:35.349Z,13.87
2019-04-04T14:02:39.215Z,13.76
2019-04-04T14:05:43.039Z,13.71
2019-04-04T14:08:46.853Z,14.04
2019-04-04T14:11:50.685Z,14.20
2019-04-04T14:14:54.475Z,13.81
2019-04-04T14:17:58.374Z,14.10
2019-04-04T14:21:04.300Z,14.16
2019-04-04T14:24:13.781Z,13.95
2019-04-04T14:27:13.560Z,14.04
2019-04-04T14:30:18.231Z,13.96
2019-04-04T14:33:22.077Z,13.92
2019-04-04T14:36:26.005Z,14.42
2019-04-04T14:39:29.844Z,14.31
2019-04-04T14:42:33.639Z,14.11
2019-04-04T14:45:37.465Z,14.11
2019-04-04T14:48:42.950Z,14.05
2019-04-04T14:51:46.891Z,14.24
2019-04-04T14:54:50.714Z,14.11
2019-04-04T14:57:54.694Z,14.07
2019-04-04T15:00:58.599Z,14.08
2019-04-04T15:04:02.418Z,14.14
2019-04-04T15:07:06.303Z,14.25
2019-04-04T15:10:10.314Z,14.40
2019-04-04T15:13:14.151Z,14.47
2019-04-04T15:16:18.727Z,14.32
2019-04-04T15:19:22.635Z,14.64
2019-04-04T15:22:26.484Z,14.40
2019-04-04T15:25:30.391Z,14.06
2019-04-04T15:28:34.267Z,13.91
2019-04-04T15:31:38.150Z,13.98
2019-04-04T15:34:41.954Z,14.02
2019-04-04T15:37:45.777Z,14.02
2019-04-04T15:40:49.567Z,13.95
2019-04-04T15:43:53.452Z,13.86
2019-04-04T15:46:57.300Z,13.95
2019-04-04T15:50:01.084Z,14.06
2019-04-04T15:53:04.995Z,13.93
2019-04-04T15:56:08.829Z,14.12
2019-04-04T15:59:12.650Z,14.24
2019-04-04T16:02:16.654Z,14.25
2019-04-04T16:05:20.480Z,14.33
2019-04-04T16:08:24.324Z,14.46
2019-04-04T16:11:28.619Z,14.54
2019-04-04T16:14:32.459Z,14.43
2019-04-04T16:17:36.281Z,14.40
2019-04-04T16:20:40.257Z,14.74
2019-04-04T16:23:44.075Z,14.66
2019-04-04T16:26:47.894Z,14.62
2019-04-04T16:29:51.718Z,14.60
2019-04-04T16:32:55.519Z,14.51
2019-04-04T16:35:59.316Z,14.15
2019-04-04T16:39:03.266Z,13.99
2019-04-04T16:42:07.085Z,13.68
2019-04-04T16:45:11.049Z,13.56
2019-04-04T16:48:14.921Z,13.33
2019-04-04T16:51:18.727Z,13.28
2019-04-04T16:54:22.533Z,13.19
2019-04-04T16:57:27.073Z,13.06
2019-04-04T17:00:31.064Z,13.16
2019-04-04T17:03:34.963Z,12.95
2019-04-04T17:06:38.784Z,12.87
2019-04-04T17:09:42.725Z,12.73
2019-04-04T17:12:46.624Z,12.65
2019-04-04T17:15:50.441Z,12.59
2019-04-04T17:18:54.250Z,12.48
2019-04-04T17:21:58.073Z,12.38
2019-04-04T17:25:01.898Z,12.26
2019-04-04T17:28:05.897Z,12.27
2019-04-04T17:31:10.288Z,12.14
2019-04-04T17:34:14.736Z,12.10
2019-04-04T17:37:18.918Z,12.03
2019-04-04T17:40:23.125Z,11.96
2019-04-04T17:43:27.528Z,12.11
2019-04-04T17:46:31.492Z,12.16
2019-04-04T17:49:35.372Z,12.47
2019-04-04T17:52:39.280Z,12.29
2019-04-04T17:55:43.073Z,12.07
2019-04-04T17:58:46.959Z,11.71
2019-04-04T18:01:50.769Z,11.75
2019-04-04T18:04:54.678Z,11.56
2019-04-04T18:07:58.603Z,11.26
2019-04-04T18:11:02.431Z,11.08
2019-04-04T18:14:06.539Z,10.98
2019-04-04T18:17:10.363Z,10.94
2019-04-04T18:20:14.965Z,10.92
2019-04-04T18:23:18.868Z,10.81
2019-04-04T18:26:22.751Z,10.68
2019-04-04T18:29:26.602Z,10.62
2019-04-04T18:32:30.421Z,10.52
2019-04-04T18:35:34.690Z,10.38
2019-04-04T18:38:38.959Z,10.29
2019-04-04T18:41:42.986Z,10.22
2019-04-04T18:44:46.800Z,10.20
2019-04-04T18:47:50.753Z,10.09
2019-04-04T18:50:54.639Z,10.04
2019-04-04T18:53:58.465Z,10.23
2019-04-04T18:57:02.375Z,10.31
2019-04-04T19:00:08.225Z,10.17
2019-04-04T19:03:12.122Z,10.12
2019-04-04T19:06:16.036Z,10.13
2019-04-04T19:09:19.931Z,9.93
2019-04-04T19:12:23.747Z,9.77
2019-04-04T19:15:27.677Z,9.71
2019-04-04T19:18:31.556Z,9.70
2019-04-04T19:21:35.456Z,9.62
2019-04-04T19:24:39.354Z,9.54
2019-04-04T19:27:43.196Z,9.59
2019-04-04T19:30:47.185Z,9.52
2019-04-04T19:33:51.079Z,9.53
2019-04-04T19:36:55.000Z,9.45
2019-04-04T19:39:58.839Z,9.39
2019-04-04T19:43:02.755Z,9.32
2019-04-04T19:46:06.723Z,9.25
2019-04-04T19:49:10.594Z,9.21
2019-04-04T19:52:14.557Z,9.23
2019-04-04T19:55:18.552Z,9.01
2019-04-04T19:58:22.364Z,8.92
2019-04-04T20:01:26.174Z,8.91
2019-04-04T20:04:30.007Z,8.78
2019-04-04T20:07:33.813Z,8.67
2019-04-04T20:10:37.638Z,8.62
2019-04-04T20:13:41.451Z,8.54
2019-04-04T20:16:45.286Z,8.47
2019-04-04T20:19:49.186Z,8.43
2019-04-04T20:22:53.053Z,8.40
2019-04-04T20:25:56.861Z,8.37
2019-04-04T20:29:00.699Z,8.45
2019-04-04T20:32:04.607Z,8.30
2019-04-04T20:35:08.682Z,8.35
2019-04-04T20:38:12.500Z,8.44
2019-04-04T20:41:16.743Z,8.37
2019-04-04T20:44:20.724Z,8.13
2019-04-04T20:47:24.528Z,8.02
2019-04-04T20:50:28.441Z,7.93
2019-04-04T20:53:32.334Z,7.86
2019-04-04T20:56:36.243Z,7.86
2019-04-04T20:59:40.104Z,8.09
2019-04-04T21:02:44.059Z,8.35
2019-04-04T21:05:48.537Z,8.05
2019-04-04T21:08:52.722Z,7.96
2019-04-04T21:11:57.112Z,7.82
2019-04-04T21:15:01.124Z,7.75
2019-04-04T21:18:05.148Z,7.68
2019-04-04T21:21:09.185Z,7.71
2019-04-04T21:24:13.066Z,8.00
2019-04-04T21:27:18.817Z,7.75
2019-04-04T21:30:22.655Z,7.69
2019-04-04T21:33:26.609Z,7.68
2019-04-04T21:36:30.381Z,7.64
2019-04-04T21:39:34.191Z,7.57
2019-04-04T21:42:38.049Z,7.69
2019-04-04T21:45:41.939Z,7.81
2019-04-04T21:48:45.775Z,7.84
2019-04-04T21:51:49.603Z,7.68
2019-04-04T21:54:53.419Z,7.60
2019-04-04T21:57:57.280Z,7.56
2019-04-04T22:01:01.517Z,7.47
2019-04-04T22:04:05.881Z,7.43
2019-04-04T22:07:10.165Z,7.44
2019-04-04T22:10:14.402Z,7.46
2019-04-04T22:13:18.432Z,7.66
2019-04-04T22:16:22.551Z,7.64
2019-04-04T22:19:26.744Z,7.78
2019-04-04T22:22:30.650Z,7.94
2019-04-04T22:25:34.946Z,7.83
2019-04-04T22:28:38.804Z,7.94
2019-04-04T22:31:42.701Z,7.88
2019-04-04T22:34:46.818Z,7.77
2019-04-04T22:37:51.064Z,7.72
2019-04-04T22:40:55.086Z,7.81
2019-04-04T22:44:03.725Z,7.75
2019-04-04T22:47:04.987Z,7.71
2019-04-04T22:50:09.444Z,7.58
2019-04-04T22:53:13.763Z,7.54
2019-04-04T22:56:17.593Z,7.45
2019-04-04T22:59:21.666Z,7.45
2019-04-04T23:02:25.647Z,7.63
2019-04-04T23:05:29.880Z,7.55
2019-04-04T23:08:34.581Z,7.38
2019-04-04T23:11:38.492Z,7.43
2019-04-04T23:14:48.398Z,7.87
2019-04-04T23:17:47.895Z,7.63
2019-04-04T23:20:51.736Z,7.53
2019-04-04T23:23:55.554Z,7.17
2019-04-04T23:26:59.380Z,7.04
2019-04-04T23:30:03.284Z,7.08
2019-04-04T23:33:07.171Z,7.09
2019-04-04T23:36:11.028Z,7.03
2019-04-04T23:39:15.039Z,6.94
2019-04-04T23:42:18.883Z,7.01
2019-04-04T23:45:22.734Z,6.98
2019-04-04T23:48:26.555Z,6.80
2019-04-04T23:51:30.550Z,6.90
2019-04-04T23:54:34.440Z,6.92
2019-04-04T23:57:38.343Z,6.99
